BLI weather

Bellingham International Airport
Bellingham, Washington, United States

Public forecast

Using degrees Fahrenheit for public forecast. Weather courtesy of forecast.io.

Current aviation weather report (METAR) for Bellingham International Airport

Retrieved 2020/02/26 20:53 UTC (49 minutes ago):

KBLI 262053Z VRB05KT 10SM OVC055 09/04 A3052 RMK AO2 SLP344 T00890039 50000

Aviation forecast (TAF) for Bellingham International Airport

Retrieved 2020/02/26 18:22 UTC (3 hours ago):

TAF KBLI 261720Z 2618/2718 18003KT P6SM SCT010 BKN020 TEMPO 2618/2620 3SM BR BKN005 FM262000 20005KT P6SM SCT025 OVC050 FM270800 15006KT P6SM BKN020 OVC050